• Join FlightAware (Why Join?)
  • Login
  • US Flag GB Flag 
09:17 EDT


 

Airport Tracker/Info


-or-


 

Live Flight TrackerFlight Track Log ✈ UAL6148 ✈ 28-Apr-2013 ✈ KLNK - KDEN

Flight Track Log - Related Links

Times and Time Zones

All times are in EDT time to prevent confusion due to time zone crossing. See the UAL6148 flight status page for this flight to view local times or setup timezone preferences in your user account.

Time Position Orientation Groundspeed Altitude Reporting Facility
EDT Latitude Longitude Course Direction KTS MPH feet Rate Location/Type
20:36 40.7861 -96.7844 214° Southwest 197 227 3,700  Level Minneapolis Center
20:37 40.7786 -96.8133 251° West 208 239 4,200 1,620 Climbing Minneapolis Center
20:37 40.7453 -96.8406 212° Southwest 237 273 5,400 2,040 Climbing Minneapolis Center
20:38 40.7564 -96.8917 286° West 252 290 6,300 2,580 Climbing Minneapolis Center
20:39 40.7461 -97.0069 263° West 265 305 9,700 2,520 Climbing Minneapolis Center
20:40 40.7353 -97.1103 262° West 279 321 11,500 1,380 Climbing Minneapolis Center
20:41 40.7244 -97.2333 263° West 324 373 12,600 1,380 Climbing Minneapolis Center
20:42 40.7114 -97.3644 263° West 353 406 14,400 1,800 Climbing Minneapolis Center
20:43 40.6994 -97.4839 263° West 358 412 16,300 1,980 Climbing Minneapolis Center
20:44 40.6844 -97.6389 263° West 355 409 18,500 1,680 Climbing Minneapolis Center
20:45 40.6717 -97.7692 263° West 357 411 20,200 1,560 Climbing Minneapolis Center
20:46 40.6556 -97.9286 262° West 364 419 22,100 1,680 Climbing Minneapolis Center
20:47 40.6425 -98.0622 263° West 366 421 23,700 1,560 Climbing Minneapolis Center
20:48 40.6283 -98.1953 262° West 366 421 25,300 1,620 Climbing Minneapolis Center
20:49 40.6150 -98.3281 263° West 365 420 27,100 1,680 Climbing Minneapolis Center
20:50 40.6058 -98.4567 265° West 357 411 28,800 1,500 Climbing Minneapolis Center
20:51 40.6172 -98.5792 277° West 342 394 30,200 1,140 Climbing Minneapolis Center
20:52 40.6297 -98.7075 277° West 347 399 31,200 840 Climbing Minneapolis Center
20:53 40.6433 -98.8669 276° West 358 412 32,000 360 Climbing Minneapolis Center
20:54 40.6533 -98.9800 277° West 373 429 32,000  Level Minneapolis Center
20:55 40.6683 -99.1594 276° West 400 460 32,000  Level Minneapolis Center
20:56 40.6789 -99.2764 277° West 400 460 32,000  Level Denver Center
20:57 40.6906 -99.4219 276° West 398 458 32,000  Level Denver Center
20:58 40.7033 -99.5692 277° West 402 463 32,000  Level Denver Center
20:59 40.7144 -99.7158 276° West 402 463 32,000  Level Denver Center
21:00 40.7269 -99.8714 276° West 404 465 32,000  Level Denver Center
21:01 40.7378 -100.0133 276° West 406 467 32,000  Level Denver Center
21:02 40.7506 -100.1778 276° West 404 465 32,000  Level Denver Center
21:03 40.7617 -100.3200 276° West 407 468 32,000  Level Denver Center
21:04 40.7722 -100.4622 276° West 407 468 32,000  Level Denver Center
21:05 40.7836 -100.6278 275° West 406 467 32,000  Level Denver Center
21:06 40.7656 -100.7856 261° West 421 484 32,000  Level Denver Center
21:07 40.7425 -100.9228 258° West 416 479 32,000  Level Denver Center
21:08 40.7233 -101.0408 258° West 413 475 32,000  Level Denver Center
21:09 40.6906 -101.2289 257° West 413 475 32,000  Level Denver Center
21:10 40.6614 -101.3933 257° West 414 476 32,000  Level Denver Center
21:11 40.6369 -101.5333 257° West 410 472 32,000  Level Denver Center
21:12 40.6119 -101.6731 257° West 411 473 32,000  Level Denver Center
21:13 40.5819 -101.8364 256° West 411 473 32,000  Level Denver Center
21:15 40.5564 -101.9767 257° West 411 473 32,000  Level Denver Center
21:16 40.5267 -102.1411 257° West 415 478 32,000  Level Denver Center
21:17 40.4989 -102.2833 256° West 419 482 32,000  Level Denver Center
21:18 40.4697 -102.4489 257° West 418 481 32,000  Level Denver Center
21:19 40.4428 -102.5922 256° West 422 486 32,000  Level Denver Center
21:20 40.4169 -102.7336 257° West 417 480 32,000  Level Denver Center
21:21 40.3836 -102.9089 256° West 420 483 32,000 -600 Level Denver Center
21:22 40.3553 -103.0567 256° West 415 478 30,800 -1,500 Descending Denver Center
21:23 40.3272 -103.2036 256° West 413 475 29,000 -1,500 Descending Denver Center
21:24 40.3006 -103.3425 256° West 393 452 27,700 -1,260 Descending Denver Center
21:25 40.2750 -103.4789 256° West 383 441 26,400 -1,200 Descending Denver Center
21:26 40.2478 -103.6106 255° West 373 429 25,300 -1,620 Descending Denver Center
21:27 40.2183 -103.7581 255° West 377 434 23,100 -2,040 Descending Denver Center
21:28 40.1903 -103.8811 253° West 356 410 21,100 -1,740 Descending Denver Center
21:29 40.1364 -103.9881 237° Southwest 353 406 19,600 -2,100 Descending Denver Center
21:30 40.0850 -104.1011 239° Southwest 339 390 16,900 -1,740 Descending Denver Center
21:31 40.0353 -104.2081 239° Southwest 345 397 16,100 -1,020 Descending Denver Center
21:32 39.9861 -104.3150 239° Southwest 347 399 14,900 -1,500 Descending Denver Center
21:33 39.9333 -104.4333 240° Southwest 312 359 13,000 -1,320 Descending Denver TRACON
21:34 39.8833 -104.5000 226° Southwest 301 346 12,300 -1,080 Descending Denver TRACON
21:35 39.8000 -104.5000 180° South 288 331 11,000 -1,140 Descending Denver TRACON
21:36 39.7167 -104.5000 180° South 261 300 10,100 -1,080 Descending Denver TRACON
21:37 39.6667 -104.5500 218° Southwest 246 283 8,900 -1,440 Descending Denver TRACON
21:38 39.7000 -104.6000 311° West 228 262 7,400 -1,380 Descending Denver TRACON
21:38 39.7067 -104.6272 288° West 232 267 7,300 -600 Descending Denver Center
21:39 39.7647 -104.6436 348° North 222 255 6,700 -780 Descending Denver Center
21:40 39.8128 -104.6431 North 176 203 5,800 -660 Descending Denver Center
21:41 39.8500 -104.6422 North 137 158 5,400 -420 Descending Denver Center
21:43 39.8500 -104.6667 270° West  Level FlightAware Approximate
21:50 39.8617 -104.6732 270° West  Level Estimated
21:51 39.8617 -104.6732 270° West  Level Estimated
21:52 39.8617 -104.6732 270° West  Level Estimated